sensor_id;sensor_type;location;lat;lon;timestamp;P1;durP1;ratioP1;P2;durP2;ratioP2
57323;SDS011;43160;51.008;18.248;2023-06-14T00:08:13;13.60;;;5.70;;
57323;SDS011;43160;51.008;18.248;2023-06-14T00:18:00;11.40;;;4.10;;
57323;SDS011;43160;51.008;18.248;2023-06-14T00:27:47;13.80;;;4.10;;
57323;SDS011;43160;51.008;18.248;2023-06-14T00:37:33;12.90;;;5.50;;
57323;SDS011;43160;51.008;18.248;2023-06-14T00:47:16;10.70;;;4.30;;
57323;SDS011;43160;51.008;18.248;2023-06-14T00:57:04;12.20;;;3.80;;
57323;SDS011;43160;51.008;18.248;2023-06-14T01:17:18;10.20;;;4.20;;
57323;SDS011;43160;51.008;18.248;2023-06-14T01:27:04;10.50;;;3.90;;
57323;SDS011;43160;51.008;18.248;2023-06-14T01:36:50;12.90;;;5.90;;
57323;SDS011;43160;51.008;18.248;2023-06-14T01:46:34;17.70;;;5.40;;
57323;SDS011;43160;51.008;18.248;2023-06-14T01:56:18;9.80;;;3.90;;
57323;SDS011;43160;51.008;18.248;2023-06-14T02:06:04;12.80;;;5.80;;
57323;SDS011;43160;51.008;18.248;2023-06-14T02:15:47;9.90;;;3.90;;
57323;SDS011;43160;51.008;18.248;2023-06-14T02:25:33;14.00;;;5.40;;
57323;SDS011;43160;51.008;18.248;2023-06-14T02:35:16;18.30;;;5.90;;
57323;SDS011;43160;51.008;18.248;2023-06-14T02:45:00;12.90;;;5.50;;
57323;SDS011;43160;51.008;18.248;2023-06-14T02:54:43;20.80;;;4.90;;
57323;SDS011;43160;51.008;18.248;2023-06-14T03:04:28;15.10;;;6.70;;
57323;SDS011;43160;51.008;18.248;2023-06-14T03:14:12;12.80;;;4.90;;
57323;SDS011;43160;51.008;18.248;2023-06-14T03:23:58;15.90;;;6.80;;
57323;SDS011;43160;51.008;18.248;2023-06-14T03:33:42;19.00;;;7.20;;
57323;SDS011;43160;51.008;18.248;2023-06-14T03:43:25;17.00;;;7.70;;
57323;SDS011;43160;51.008;18.248;2023-06-14T03:53:08;13.60;;;5.30;;
57323;SDS011;43160;51.008;18.248;2023-06-14T04:02:52;16.40;;;7.90;;
57323;SDS011;43160;51.008;18.248;2023-06-14T04:12:40;20.20;;;10.50;;
57323;SDS011;43160;51.008;18.248;2023-06-14T04:22:25;22.10;;;9.00;;
57323;SDS011;43160;51.008;18.248;2023-06-14T04:27:25;26.10;;;14.50;;
57323;SDS011;43160;51.008;18.248;2023-06-14T04:37:20;18.80;;;9.20;;
57323;SDS011;43160;51.008;18.248;2023-06-14T04:47:06;22.30;;;8.30;;
57323;SDS011;43160;51.008;18.248;2023-06-14T04:56:52;17.90;;;9.30;;
57323;SDS011;43160;51.008;18.248;2023-06-14T05:06:44;15.80;;;8.50;;
57323;SDS011;43160;51.008;18.248;2023-06-14T05:16:28;15.20;;;7.70;;
57323;SDS011;43160;51.008;18.248;2023-06-14T05:26:12;16.50;;;8.50;;
57323;SDS011;43160;51.008;18.248;2023-06-14T05:35:56;18.30;;;8.80;;
57323;SDS011;43160;51.008;18.248;2023-06-14T05:45:38;17.40;;;8.60;;
57323;SDS011;43160;51.008;18.248;2023-06-14T05:55:21;17.70;;;6.90;;
57323;SDS011;43160;51.008;18.248;2023-06-14T06:05:09;14.80;;;7.20;;
57323;SDS011;43160;51.008;18.248;2023-06-14T06:14:54;21.00;;;8.80;;
57323;SDS011;43160;51.008;18.248;2023-06-14T06:24:40;14.10;;;7.40;;
57323;SDS011;43160;51.008;18.248;2023-06-14T06:34:26;15.10;;;7.40;;
57323;SDS011;43160;51.008;18.248;2023-06-14T06:44:10;10.40;;;4.90;;
57323;SDS011;43160;51.008;18.248;2023-06-14T06:53:57;13.80;;;6.50;;
57323;SDS011;43160;51.008;18.248;2023-06-14T07:03:41;13.30;;;6.70;;
57323;SDS011;43160;51.008;18.248;2023-06-14T07:13:25;13.60;;;6.40;;
57323;SDS011;43160;51.008;18.248;2023-06-14T07:23:13;12.80;;;6.20;;
57323;SDS011;43160;51.008;18.248;2023-06-14T07:32:56;13.00;;;5.90;;
57323;SDS011;43160;51.008;18.248;2023-06-14T07:42:41;17.40;;;6.40;;
57323;SDS011;43160;51.008;18.248;2023-06-14T07:52:24;13.80;;;6.90;;
57323;SDS011;43160;51.008;18.248;2023-06-14T08:02:08;12.70;;;5.90;;
57323;SDS011;43160;51.008;18.248;2023-06-14T08:11:53;13.30;;;6.60;;
57323;SDS011;43160;51.008;18.248;2023-06-14T08:21:36;12.40;;;6.00;;
57323;SDS011;43160;51.008;18.248;2023-06-14T08:31:21;10.60;;;4.90;;
57323;SDS011;43160;51.008;18.248;2023-06-14T08:41:05;10.20;;;4.50;;
57323;SDS011;43160;51.008;18.248;2023-06-14T08:50:51;12.60;;;5.10;;
57323;SDS011;43160;51.008;18.248;2023-06-14T09:01:02;14.30;;;5.90;;
57323;SDS011;43160;51.008;18.248;2023-06-14T09:10:51;11.70;;;5.60;;
57323;SDS011;43160;51.008;18.248;2023-06-14T09:20:34;11.60;;;5.10;;
57323;SDS011;43160;51.008;18.248;2023-06-14T09:30:19;11.90;;;5.60;;
57323;SDS011;43160;51.008;18.248;2023-06-14T09:40:04;11.60;;;3.60;;
57323;SDS011;43160;51.008;18.248;2023-06-14T09:49:53;10.00;;;4.80;;
57323;SDS011;43160;51.008;18.248;2023-06-14T09:59:43;10.80;;;4.90;;
57323;SDS011;43160;51.008;18.248;2023-06-14T10:09:32;14.00;;;5.70;;
57323;SDS011;43160;51.008;18.248;2023-06-14T10:19:40;10.60;;;4.40;;
57323;SDS011;43160;51.008;18.248;2023-06-14T10:39:39;11.90;;;5.40;;
57323;SDS011;43160;51.008;18.248;2023-06-14T10:49:45;11.60;;;5.40;;
57323;SDS011;43160;51.008;18.248;2023-06-14T11:05:14;10.40;;;4.50;;
57323;SDS011;43160;51.008;18.248;2023-06-14T11:15:32;10.50;;;5.00;;
57323;SDS011;43160;51.008;18.248;2023-06-14T11:25:21;10.20;;;4.30;;
57323;SDS011;43160;51.008;18.248;2023-06-14T11:35:06;9.30;;;3.80;;
57323;SDS011;43160;51.008;18.248;2023-06-14T11:44:59;10.00;;;4.30;;
57323;SDS011;43160;51.008;18.248;2023-06-14T11:54:49;11.30;;;5.30;;
57323;SDS011;43160;51.008;18.248;2023-06-14T12:04:32;10.70;;;5.00;;
57323;SDS011;43160;51.008;18.248;2023-06-14T12:14:51;12.10;;;4.70;;
57323;SDS011;43160;51.008;18.248;2023-06-14T12:31:55;9.00;;;3.10;;
57323;SDS011;43160;51.008;18.248;2023-06-14T12:41:48;11.70;;;5.00;;
57323;SDS011;43160;51.008;18.248;2023-06-14T12:51:36;8.80;;;3.00;;
57323;SDS011;43160;51.008;18.248;2023-06-14T13:01:24;9.00;;;3.10;;
57323;SDS011;43160;51.008;18.248;2023-06-14T13:11:08;9.10;;;3.20;;
57323;SDS011;43160;51.008;18.248;2023-06-14T13:20:51;9.50;;;3.20;;
57323;SDS011;43160;51.008;18.248;2023-06-14T13:30:34;10.00;;;3.10;;
57323;SDS011;43160;51.008;18.248;2023-06-14T13:40:18;9.50;;;4.00;;
57323;SDS011;43160;51.008;18.248;2023-06-14T13:50:04;10.10;;;4.20;;
57323;SDS011;43160;51.008;18.248;2023-06-14T13:59:48;9.10;;;3.60;;
57323;SDS011;43160;51.008;18.248;2023-06-14T14:09:33;8.40;;;3.10;;
57323;SDS011;43160;51.008;18.248;2023-06-14T14:19:21;10.90;;;5.80;;
57323;SDS011;43160;51.008;18.248;2023-06-14T14:29:05;11.00;;;4.50;;
57323;SDS011;43160;51.008;18.248;2023-06-14T14:38:48;13.30;;;5.50;;
57323;SDS011;43160;51.008;18.248;2023-06-14T14:48:31;11.60;;;5.10;;
57323;SDS011;43160;51.008;18.248;2023-06-14T14:58:14;10.80;;;2.60;;
57323;SDS011;43160;51.008;18.248;2023-06-14T15:08:04;13.30;;;6.60;;
57323;SDS011;43160;51.008;18.248;2023-06-14T15:17:53;12.00;;;5.80;;
57323;SDS011;43160;51.008;18.248;2023-06-14T15:27:35;14.40;;;8.00;;
57323;SDS011;43160;51.008;18.248;2023-06-14T15:37:20;14.70;;;7.80;;
57323;SDS011;43160;51.008;18.248;2023-06-14T15:47:03;13.40;;;6.60;;
57323;SDS011;43160;51.008;18.248;2023-06-14T15:56:48;17.90;;;7.00;;
57323;SDS011;43160;51.008;18.248;2023-06-14T16:06:31;15.90;;;7.90;;
57323;SDS011;43160;51.008;18.248;2023-06-14T16:16:14;13.10;;;6.80;;
57323;SDS011;43160;51.008;18.248;2023-06-14T16:26:00;18.80;;;8.00;;
57323;SDS011;43160;51.008;18.248;2023-06-14T16:35:43;23.90;;;8.00;;
57323;SDS011;43160;51.008;18.248;2023-06-14T16:45:26;9.10;;;3.70;;
57323;SDS011;43160;51.008;18.248;2023-06-14T16:55:09;12.50;;;4.70;;
57323;SDS011;43160;51.008;18.248;2023-06-14T17:04:52;16.10;;;7.90;;
57323;SDS011;43160;51.008;18.248;2023-06-14T17:14:37;15.00;;;9.40;;
57323;SDS011;43160;51.008;18.248;2023-06-14T17:24:21;14.80;;;8.10;;
57323;SDS011;43160;51.008;18.248;2023-06-14T17:34:06;15.10;;;7.70;;
57323;SDS011;43160;51.008;18.248;2023-06-14T17:43:52;12.30;;;5.40;;
57323;SDS011;43160;51.008;18.248;2023-06-14T17:53:35;24.10;;;7.70;;
57323;SDS011;43160;51.008;18.248;2023-06-14T18:03:20;21.60;;;9.50;;
57323;SDS011;43160;51.008;18.248;2023-06-14T18:13:03;14.20;;;7.20;;
57323;SDS011;43160;51.008;18.248;2023-06-14T18:22:47;16.60;;;8.20;;
57323;SDS011;43160;51.008;18.248;2023-06-14T18:32:32;17.50;;;8.50;;
57323;SDS011;43160;51.008;18.248;2023-06-14T18:42:16;19.60;;;10.00;;
57323;SDS011;43160;51.008;18.248;2023-06-14T18:52:02;20.60;;;10.00;;
57323;SDS011;43160;51.008;18.248;2023-06-14T19:01:45;14.60;;;7.10;;
57323;SDS011;43160;51.008;18.248;2023-06-14T19:11:29;13.90;;;6.50;;
57323;SDS011;43160;51.008;18.248;2023-06-14T19:21:12;15.60;;;8.20;;
57323;SDS011;43160;51.008;18.248;2023-06-14T19:30:59;24.40;;;10.90;;
57323;SDS011;43160;51.008;18.248;2023-06-14T19:40:44;17.30;;;9.50;;
57323;SDS011;43160;51.008;18.248;2023-06-14T19:50:28;20.40;;;10.20;;
57323;SDS011;43160;51.008;18.248;2023-06-14T20:00:11;28.40;;;15.80;;
57323;SDS011;43160;51.008;18.248;2023-06-14T20:09:57;19.40;;;10.60;;
57323;SDS011;43160;51.008;18.248;2023-06-14T20:19:41;20.70;;;11.20;;
57323;SDS011;43160;51.008;18.248;2023-06-14T20:29:24;19.30;;;10.30;;
57323;SDS011;43160;51.008;18.248;2023-06-14T20:39:08;21.70;;;11.10;;
57323;SDS011;43160;51.008;18.248;2023-06-14T20:48:57;17.60;;;8.90;;
57323;SDS011;43160;51.008;18.248;2023-06-14T20:58:41;19.60;;;10.70;;
57323;SDS011;43160;51.008;18.248;2023-06-14T21:08:25;13.90;;;6.80;;
57323;SDS011;43160;51.008;18.248;2023-06-14T21:18:14;15.00;;;7.10;;
57323;SDS011;43160;51.008;18.248;2023-06-14T21:27:57;24.70;;;9.20;;
57323;SDS011;43160;51.008;18.248;2023-06-14T21:37:51;21.60;;;11.00;;
57323;SDS011;43160;51.008;18.248;2023-06-14T21:47:37;20.30;;;11.70;;
57323;SDS011;43160;51.008;18.248;2023-06-14T21:57:22;14.20;;;4.90;;
57323;SDS011;43160;51.008;18.248;2023-06-14T22:07:08;23.10;;;12.20;;
57323;SDS011;43160;51.008;18.248;2023-06-14T22:17:00;20.40;;;12.60;;
57323;SDS011;43160;51.008;18.248;2023-06-14T22:26:49;31.20;;;15.90;;
57323;SDS011;43160;51.008;18.248;2023-06-14T22:36:40;27.70;;;11.40;;
57323;SDS011;43160;51.008;18.248;2023-06-14T22:46:29;47.10;;;15.30;;
57323;SDS011;43160;51.008;18.248;2023-06-14T22:56:14;39.00;;;16.20;;
57323;SDS011;43160;51.008;18.248;2023-06-14T23:06:06;18.10;;;8.10;;
57323;SDS011;43160;51.008;18.248;2023-06-14T23:16:12;39.80;;;10.90;;
57323;SDS011;43160;51.008;18.248;2023-06-14T23:26:03;30.30;;;10.90;;
57323;SDS011;43160;51.008;18.248;2023-06-14T23:35:51;14.10;;;5.60;;
57323;SDS011;43160;51.008;18.248;2023-06-14T23:45:39;31.10;;;15.30;;
57323;SDS011;43160;51.008;18.248;2023-06-14T23:55:27;36.20;;;15.90;;
